Time;durP1;ratioP1;P1;durP2;ratioP2;P2;SDS_P1;SDS_P2;PMS_P1;PMS_P2;Temp;Humidity;BMP_temperature;BMP_pressure;BME280_temperature;BME280_humidity;BME280_pressure;Samples;Min_cycle;Max_cycle;Signal;HPM_P1;HPM_P2
2022/06/20 00:01:29;;;;;;;;;;;;;;;22.75;55.02;98460.16;8246383;28;20003;-74
2022/06/20 00:05:32;;;;;;;;;;;;;;;22.70;54.81;98479.00;8243192;28;20020;-74
2022/06/20 00:09:34;;;;;;;;;;;;;;;22.68;55.17;98480.91;8252384;28;19930;-74
2022/06/20 00:13:35;;;;;;;;;;;;;;;22.64;55.29;98474.16;8245372;28;19930;-74
2022/06/20 00:17:36;;;;;;;;;;;;;;;22.66;55.54;98474.03;8252364;28;20024;-74
2022/06/20 00:21:38;;;;;;;;;;;;;;;22.65;55.74;98481.13;8247799;28;20543;-74
2022/06/20 00:25:40;;;;;;;;;;;;;;;22.58;55.65;98480.69;8233228;28;19996;-74
2022/06/20 00:29:43;;;;;;;;;;;;;;;22.58;55.52;98475.38;8238673;28;19938;-74
2022/06/20 00:33:44;;;;;;;;;;;;;;;22.54;55.70;98508.31;8243478;28;20034;-74
2022/06/20 00:37:46;;;;;;;;;;;;;;;22.53;55.62;98593.09;8253005;28;20423;-74
2022/06/20 00:41:49;;;;;;;;;;;;;;;22.46;55.87;98558.25;8252678;28;19969;-74
2022/06/20 00:45:52;;;;;;;;;;;;;;;22.33;56.05;98588.25;8249663;28;19929;-74
2022/06/20 00:49:58;;;;;;;;;;;;;;;22.29;56.33;98641.34;8232719;28;19934;-74
2022/06/20 00:54:21;;;;;;;;;;;;;;;22.21;56.64;98635.69;8251438;28;20330;-74
2022/06/20 00:58:33;;;;;;;;;;;;;;;22.19;56.36;98663.19;8232012;28;20272;-74
2022/06/20 01:02:37;;;;;;;;;;;;;;;22.09;56.30;98651.50;8247682;28;20004;-74
2022/06/20 01:06:43;;;;;;;;;;;;;;;21.97;56.19;98646.00;8250231;28;20296;-75
2022/06/20 01:10:52;;;;;;;;;;;;;;;21.87;56.44;98658.09;8235739;28;19930;-75
2022/06/20 01:14:54;;;;;;;;;;;;;;;21.65;56.96;98652.44;8244412;28;19940;-74
2022/06/20 01:18:57;;;;;;;;;;;;;;;21.52;57.01;98651.47;8245528;28;20064;-75
2022/06/20 01:23:14;;;;;;;;;;;;;;;21.41;57.08;98649.50;8254427;28;20029;-74
2022/06/20 01:27:31;;;;;;;;;;;;;;;21.24;57.47;98636.44;8251351;28;19930;-74
2022/06/20 01:31:37;;;;;;;;;;;;;;;21.01;57.65;98640.44;8234563;28;19934;-74
2022/06/20 01:40:04;;;;;;;;;;;;;;;20.80;58.34;98648.66;8212587;28;19973;-74
2022/06/20 01:44:06;;;;;;;;;;;;;;;20.65;58.87;98654.84;8185111;29;20013;-74
2022/06/20 01:48:13;;;;;;;;;;;;;;;20.56;59.22;98650.06;8189145;28;19934;-74
2022/06/20 01:52:29;;;;;;;;;;;;;;;20.54;59.03;98641.41;8191457;28;19953;-74
2022/06/20 01:56:30;;;;;;;;;;;;;;;20.51;59.25;98634.50;8187026;29;19985;-74
2022/06/20 02:00:32;;;;;;;;;;;;;;;20.50;59.46;98632.81;8184850;28;19930;-74
2022/06/20 02:04:35;;;;;;;;;;;;;;;20.45;59.77;98621.66;8204083;28;20651;-74
2022/06/20 02:08:37;;;;;;;;;;;;;;;20.43;59.85;98628.81;8189206;29;19934;-74
2022/06/20 02:12:38;;;;;;;;;;;;;;;20.41;59.63;98628.03;8189565;29;19974;-74
2022/06/20 02:16:42;;;;;;;;;;;;;;;20.43;59.76;98620.03;8209697;28;20323;-74
2022/06/20 02:20:45;;;;;;;;;;;;;;;20.39;59.42;98611.44;8225222;28;19988;-74
2022/06/20 02:24:48;;;;;;;;;;;;;;;20.37;59.83;98609.81;8225135;28;20016;-74
2022/06/20 02:28:56;;;;;;;;;;;;;;;20.27;60.30;98603.34;8224304;28;19930;-74
2022/06/20 02:33:00;;;;;;;;;;;;;;;20.26;60.36;98605.13;8212498;28;19941;-74
2022/06/20 02:37:03;;;;;;;;;;;;;;;20.14;61.16;98613.75;8268157;28;19949;-74
2022/06/20 02:41:05;;;;;;;;;;;;;;;19.94;61.98;98609.59;8259099;28;19956;-74
2022/06/20 02:45:10;;;;;;;;;;;;;;;19.97;63.13;98604.16;8260189;28;19929;-73
2022/06/20 02:49:11;;;;;;;;;;;;;;;19.76;63.20;98606.19;8264437;28;19945;-75
2022/06/20 02:53:30;;;;;;;;;;;;;;;19.62;63.71;98608.69;8264685;28;19930;-75
2022/06/20 02:57:31;;;;;;;;;;;;;;;19.59;64.47;98598.34;8263254;28;20012;-74
2022/06/20 03:01:34;;;;;;;;;;;;;;;19.50;64.73;98604.03;8260050;28;19933;-75
2022/06/20 03:05:37;;;;;;;;;;;;;;;19.36;65.23;98596.88;8260400;28;19936;-74
2022/06/20 03:09:40;;;;;;;;;;;;;;;19.20;65.45;98602.09;8258907;28;20044;-74
2022/06/20 03:13:42;;;;;;;;;;;;;;;19.27;65.67;98618.44;8256107;28;19976;-75
2022/06/20 03:17:48;;;;;;;;;;;;;;;19.25;65.90;98621.16;8249475;28;19965;-75
2022/06/20 03:21:49;;;;;;;;;;;;;;;19.22;66.15;98623.09;8264807;28;19940;-75
2022/06/20 03:25:52;;;;;;;;;;;;;;;19.14;66.96;98631.34;8260389;28;19977;-75
2022/06/20 03:29:57;;;;;;;;;;;;;;;19.14;66.64;98689.25;8259038;28;19934;-75
2022/06/20 03:33:58;;;;;;;;;;;;;;;19.17;66.33;98725.94;8281674;28;19941;-75
2022/06/20 03:38:02;;;;;;;;;;;;;;;19.26;65.65;98707.06;8281639;28;20389;-75
2022/06/20 03:42:03;;;;;;;;;;;;;;;19.37;65.44;98722.31;8282931;28;20729;-76
2022/06/20 03:46:10;;;;;;;;;;;;;;;19.38;65.30;98725.78;8285479;28;19930;-76
2022/06/20 03:50:18;;;;;;;;;;;;;;;19.30;65.19;98726.19;8285346;28;20376;-75
2022/06/20 03:54:34;;;;;;;;;;;;;;;19.32;66.12;98735.72;8286175;28;19952;-75
2022/06/20 03:58:38;;;;;;;;;;;;;;;19.28;65.77;98743.84;8283519;28;19929;-75
2022/06/20 04:02:47;;;;;;;;;;;;;;;19.22;66.00;98752.91;8281531;28;19936;-76
2022/06/20 04:06:56;;;;;;;;;;;;;;;19.20;66.11;98762.63;8266098;28;19933;-76
2022/06/20 04:11:01;;;;;;;;;;;;;;;19.23;66.64;98774.81;8285109;28;20440;-75
2022/06/20 04:15:13;;;;;;;;;;;;;;;19.29;66.73;98763.97;8264905;28;19929;-76
2022/06/20 04:19:19;;;;;;;;;;;;;;;19.31;67.23;98752.44;8289372;28;20025;-76
2022/06/20 04:23:30;;;;;;;;;;;;;;;19.31;67.44;98743.69;8261856;28;19930;-76
2022/06/20 04:27:48;;;;;;;;;;;;;;;19.33;67.69;98734.78;8284451;28;19947;-76
2022/06/20 04:31:50;;;;;;;;;;;;;;;19.30;67.35;98784.09;8292664;28;19929;-76
2022/06/20 04:36:03;;;;;;;;;;;;;;;19.35;67.27;98833.91;8280809;28;19964;-76
2022/06/20 04:40:09;;;;;;;;;;;;;;;19.36;67.65;98875.09;8285768;28;19964;-77
2022/06/20 04:44:30;;;;;;;;;;;;;;;19.33;67.24;98963.81;8297135;28;19937;-77
2022/06/20 04:48:33;;;;;;;;;;;;;;;19.22;67.74;98904.72;8277257;28;20232;-77
2022/06/20 04:52:38;;;;;;;;;;;;;;;19.17;71.54;98783.84;8273353;28;19933;-76
2022/06/20 04:56:43;;;;;;;;;;;;;;;19.10;73.51;98803.50;8275941;28;19941;-73
2022/06/20 05:00:46;;;;;;;;;;;;;;;18.86;76.11;98854.69;8273200;28;19930;-73
2022/06/20 05:04:49;;;;;;;;;;;;;;;18.73;77.70;98870.16;8263245;28;20620;-73
2022/06/20 05:09:04;;;;;;;;;;;;;;;18.64;80.12;98865.31;8279500;28;20757;-73
2022/06/20 05:13:20;;;;;;;;;;;;;;;18.52;81.76;98850.09;8281001;28;19936;-73
2022/06/20 05:17:25;;;;;;;;;;;;;;;18.53;83.00;98838.63;8281235;28;19960;-74
2022/06/20 05:21:31;;;;;;;;;;;;;;;18.64;83.98;98820.59;8282427;28;19944;-74
2022/06/20 05:25:33;;;;;;;;;;;;;;;18.63;84.89;98780.31;8282844;28;19929;-75
2022/06/20 05:29:37;;;;;;;;;;;;;;;18.66;84.91;98774.91;8284137;28;20591;-75
2022/06/20 05:33:43;;;;;;;;;;;;;;;18.68;84.46;98786.22;8281307;28;19940;-74
2022/06/20 05:37:48;;;;;;;;;;;;;;;18.63;84.57;98771.56;8287952;28;20397;-75
2022/06/20 05:41:50;;;;;;;;;;;;;;;18.70;84.50;98775.63;8281613;28;20342;-74
2022/06/20 05:46:03;;;;;;;;;;;;;;;18.82;84.57;98768.91;8284518;28;20918;-74
2022/06/20 05:50:07;;;;;;;;;;;;;;;18.82;85.34;98743.47;8275598;28;20566;-74
2022/06/20 05:54:19;;;;;;;;;;;;;;;18.76;85.76;98785.00;8282455;28;19969;-74
2022/06/20 05:58:27;;;;;;;;;;;;;;;18.69;87.15;98790.56;8283664;28;20401;-74
2022/06/20 06:02:32;;;;;;;;;;;;;;;18.74;87.48;98805.25;8279170;28;19947;-74
2022/06/20 06:06:47;;;;;;;;;;;;;;;18.78;87.05;98802.41;8294343;28;19933;-74
2022/06/20 06:11:09;;;;;;;;;;;;;;;18.89;86.44;98789.63;8289821;28;19929;-74
2022/06/20 06:15:11;;;;;;;;;;;;;;;18.88;86.00;98813.38;8269602;28;20024;-75
2022/06/20 06:19:29;;;;;;;;;;;;;;;18.83;86.56;98821.44;8245275;28;19960;-75
2022/06/20 06:23:31;;;;;;;;;;;;;;;18.89;86.45;98820.34;8252733;28;20254;-76
2022/06/20 06:27:34;;;;;;;;;;;;;;;18.93;86.49;98829.78;8253332;28;20069;-76
2022/06/20 06:31:40;;;;;;;;;;;;;;;19.02;86.53;98831.97;8218380;28;19941;-76
2022/06/20 06:35:45;;;;;;;;;;;;;;;19.13;86.66;98827.03;8221806;28;19930;-76
2022/06/20 06:40:04;;;;;;;;;;;;;;;19.46;87.28;98826.34;8249649;28;19976;-76
2022/06/20 06:44:14;;;;;;;;;;;;;;;19.80;85.02;98834.28;8237134;28;20351;-77
2022/06/20 06:48:31;;;;;;;;;;;;;;;20.37;81.84;98834.81;8280562;28;20634;-77
2022/06/20 06:52:42;;;;;;;;;;;;;;;21.62;78.24;98848.16;8282777;28;19933;-77
2022/06/20 06:56:56;;;;;;;;;;;;;;;22.55;74.46;98846.06;8277793;28;19933;-77
2022/06/20 07:01:03;;;;;;;;;;;;;;;23.24;70.59;98848.81;8281312;28;19977;-77
2022/06/20 07:05:08;;;;;;;;;;;;;;;23.35;70.82;98852.47;8281699;28;20039;-76
2022/06/20 07:09:16;;;;;;;;;;;;;;;23.86;67.75;98855.28;8284766;28;19929;-77
2022/06/20 07:13:51;;;;;;;;;;;;;;;24.50;64.45;98863.34;8283725;28;19933;-77
2022/06/20 07:17:54;;;;;;;;;;;;;;;24.73;62.43;98865.22;8266606;28;19934;-76
2022/06/20 07:21:57;;;;;;;;;;;;;;;25.16;62.25;98862.19;8287653;28;19938;-77
2022/06/20 07:25:59;;;;;;;;;;;;;;;24.72;62.21;98860.84;8271099;28;19929;-76
2022/06/20 07:30:09;;;;;;;;;;;;;;;24.17;63.01;98853.22;8303223;28;20433;-77
2022/06/20 07:34:13;;;;;;;;;;;;;;;23.80;66.46;98850.41;8275851;28;19987;-76
2022/06/20 07:38:33;;;;;;;;;;;;;;;23.40;66.58;98862.78;8303364;28;20024;-76
2022/06/20 07:42:36;;;;;;;;;;;;;;;23.19;67.15;98868.50;8302179;28;19933;-76
2022/06/20 07:46:41;;;;;;;;;;;;;;;23.52;66.55;98886.69;8308666;28;19933;-77
2022/06/20 07:50:47;;;;;;;;;;;;;;;23.96;66.69;98903.28;8294243;28;19972;-76
2022/06/20 07:54:50;;;;;;;;;;;;;;;23.95;65.92;98920.97;8314009;28;20381;-76
2022/06/20 07:58:56;;;;;;;;;;;;;;;23.74;65.23;98933.88;8299409;28;19963;-76
2022/06/20 08:03:02;;;;;;;;;;;;;;;23.69;66.37;98929.78;8307997;28;19976;-76
2022/06/20 08:07:08;;;;;;;;;;;;;;;23.82;67.79;98938.66;8294320;28;19929;-76
2022/06/20 08:11:39;;;;;;;;;;;;;;;23.73;67.57;98936.63;8305240;28;20303;-76
2022/06/20 08:15:46;;;;;;;;;;;;;;;23.60;68.46;98957.75;8283667;28;19933;-76
2022/06/20 08:19:50;;;;;;;;;;;;;;;23.46;68.69;98966.56;8311637;28;19929;-76
2022/06/20 08:24:07;;;;;;;;;;;;;;;23.29;68.54;98985.34;8290825;28;20562;-76
2022/06/20 08:28:16;;;;;;;;;;;;;;;23.15;69.56;98982.69;8297634;28;20346;-76
2022/06/20 08:32:33;;;;;;;;;;;;;;;23.04;68.92;98974.56;8307990;28;19968;-77
2022/06/20 08:36:44;;;;;;;;;;;;;;;22.92;68.74;98979.66;8265538;28;19952;-76
2022/06/20 08:41:02;;;;;;;;;;;;;;;22.82;70.13;98981.19;8264684;28;19940;-76
2022/06/20 08:45:22;;;;;;;;;;;;;;;22.83;71.24;98976.75;8244415;28;20786;-77
2022/06/20 08:49:48;;;;;;;;;;;;;;;22.80;69.87;98979.53;8216437;28;20011;-77
2022/06/20 08:54:02;;;;;;;;;;;;;;;22.68;69.63;98980.28;8221164;28;19973;-76
2022/06/20 08:58:16;;;;;;;;;;;;;;;22.56;69.29;98989.81;8217118;28;19934;-76
2022/06/20 09:02:29;;;;;;;;;;;;;;;22.61;70.03;98993.03;8221881;28;19930;-76
2022/06/20 09:06:40;;;;;;;;;;;;;;;22.72;69.08;98992.41;8219183;28;20350;-76
2022/06/20 09:10:47;;;;;;;;;;;;;;;22.77;69.15;99001.75;8221403;28;20004;-76
2022/06/20 09:15:02;;;;;;;;;;;;;;;22.84;68.17;99000.47;8219380;28;20033;-76
2022/06/20 09:19:16;;;;;;;;;;;;;;;22.79;68.12;98989.28;8245343;28;19941;-76
2022/06/20 09:23:43;;;;;;;;;;;;;;;22.78;68.27;98997.31;8235583;28;19930;-76
2022/06/20 09:27:59;;;;;;;;;;;;;;;22.75;69.47;98990.41;8245156;28;20016;-76
2022/06/20 09:32:21;;;;;;;;;;;;;;;22.68;68.23;98999.69;8230689;28;20024;-76
2022/06/20 09:36:32;;;;;;;;;;;;;;;22.78;69.30;99010.53;8259916;28;19930;-76
2022/06/20 09:40:52;;;;;;;;;;;;;;;22.81;69.03;99013.88;8251956;28;19929;-76
2022/06/20 09:45:05;;;;;;;;;;;;;;;23.01;67.81;99009.19;8257308;28;20318;-76
2022/06/20 09:49:32;;;;;;;;;;;;;;;23.19;67.82;99016.84;8250261;28;20257;-77
2022/06/20 09:53:54;;;;;;;;;;;;;;;23.49;67.11;99022.03;8249772;28;19980;-76
2022/06/20 09:58:05;;;;;;;;;;;;;;;23.85;66.26;99031.25;8246716;28;19993;-77
2022/06/20 10:02:17;;;;;;;;;;;;;;;23.82;64.68;99031.47;8256793;28;19934;-77
2022/06/20 10:06:42;;;;;;;;;;;;;;;23.46;65.54;99039.91;8254084;28;19934;-76
2022/06/20 10:11:02;;;;;;;;;;;;;;;23.21;65.99;99044.09;8257235;28;19934;-76
2022/06/20 10:15:22;;;;;;;;;;;;;;;23.27;66.26;99034.91;8270909;28;20353;-76
2022/06/20 10:19:23;;;;;;;;;;;;;;;23.58;65.42;99033.88;8233607;28;20013;-76
2022/06/20 10:23:44;;;;;;;;;;;;;;;23.60;65.26;99039.94;8251266;28;19973;-76
2022/06/20 10:27:52;;;;;;;;;;;;;;;23.62;64.64;99053.09;8248180;28;19929;-76
2022/06/20 10:32:12;;;;;;;;;;;;;;;23.58;64.96;99048.94;8237477;28;20508;-76
2022/06/20 10:36:47;;;;;;;;;;;;;;;23.49;64.45;99061.78;8271386;28;19930;-76
2022/06/20 10:41:03;;;;;;;;;;;;;;;23.54;63.56;99056.22;8210823;28;20056;-76
2022/06/20 10:45:34;;;;;;;;;;;;;;;23.86;64.32;99050.66;8200148;28;19941;-77
2022/06/20 10:49:48;;;;;;;;;;;;;;;24.27;62.08;99048.00;8189154;28;19990;-77
2022/06/20 10:53:54;;;;;;;;;;;;;;;24.49;61.37;99052.75;8173079;28;20021;-77
2022/06/20 10:58:16;;;;;;;;;;;;;;;24.51;60.30;99049.03;8169875;28;20503;-76
2022/06/20 11:02:33;;;;;;;;;;;;;;;24.13;60.29;99050.69;8195531;28;19940;-77
2022/06/20 11:06:37;;;;;;;;;;;;;;;23.82;60.30;99052.66;8218712;28;20013;-77
2022/06/20 11:10:58;;;;;;;;;;;;;;;23.71;62.85;99068.44;8239545;28;19961;-77
2022/06/20 11:15:24;;;;;;;;;;;;;;;23.94;61.19;99069.63;8241163;28;20333;-76
2022/06/20 11:19:32;;;;;;;;;;;;;;;23.87;60.31;99081.53;8279327;28;19991;-76
2022/06/20 11:23:44;;;;;;;;;;;;;;;23.80;61.11;99089.91;8289939;28;19929;-76
2022/06/20 11:27:51;;;;;;;;;;;;;;;23.54;61.70;99095.97;8284894;28;19957;-76
2022/06/20 11:32:09;;;;;;;;;;;;;;;23.57;62.19;99094.94;8290742;28;19937;-76
2022/06/20 11:36:13;;;;;;;;;;;;;;;23.52;62.26;99114.63;8276290;28;20035;-76
2022/06/20 11:40:33;;;;;;;;;;;;;;;23.46;61.74;99112.31;8270426;28;19933;-77
2022/06/20 11:44:43;;;;;;;;;;;;;;;23.81;62.35;99109.31;8280322;28;19929;-77
2022/06/20 11:48:59;;;;;;;;;;;;;;;24.28;61.59;99102.78;8259413;28;20570;-77
2022/06/20 11:53:12;;;;;;;;;;;;;;;24.31;60.34;99106.09;8267600;28;19929;-77
2022/06/20 11:57:16;;;;;;;;;;;;;;;24.30;59.08;99109.72;8279828;28;19930;-77
2022/06/20 12:01:25;;;;;;;;;;;;;;;24.10;57.79;99126.03;8276500;28;20001;-77
2022/06/20 12:05:37;;;;;;;;;;;;;;;23.93;58.98;99127.13;8281970;28;19933;-77
2022/06/20 12:09:58;;;;;;;;;;;;;;;23.98;60.32;99137.41;8278541;28;19979;-77
2022/06/20 12:14:19;;;;;;;;;;;;;;;24.06;59.16;99130.69;8278886;28;19929;-77
2022/06/20 12:18:27;;;;;;;;;;;;;;;24.24;58.47;99141.94;8271711;28;19929;-77
2022/06/20 12:26:52;;;;;;;;;;;;;;;24.11;58.81;99141.84;8276938;28;19965;-77
2022/06/20 12:30:57;;;;;;;;;;;;;;;24.02;58.94;99145.06;8272921;28;19940;-77
2022/06/20 12:35:10;;;;;;;;;;;;;;;23.86;58.93;99139.03;8267484;28;19996;-77
2022/06/20 12:39:31;;;;;;;;;;;;;;;24.01;59.66;99131.91;8279431;28;20238;-77
2022/06/20 12:43:47;;;;;;;;;;;;;;;24.11;59.03;99138.34;8278970;28;19930;-77
2022/06/20 12:48:02;;;;;;;;;;;;;;;24.31;59.14;99139.75;8279077;28;19933;-77
2022/06/20 12:52:18;;;;;;;;;;;;;;;24.33;58.49;99135.19;8277650;28;19972;-77
2022/06/20 12:56:39;;;;;;;;;;;;;;;24.21;58.82;99142.09;8288443;28;19967;-77
2022/06/20 13:00:41;;;;;;;;;;;;;;;24.35;58.95;99139.44;8285602;28;19969;-77
2022/06/20 13:04:48;;;;;;;;;;;;;;;24.52;57.62;99134.84;8272723;28;20472;-76
2022/06/20 13:09:08;;;;;;;;;;;;;;;24.53;55.85;99144.50;8283687;28;19929;-76
2022/06/20 13:13:36;;;;;;;;;;;;;;;24.47;56.65;99139.63;8279218;28;20334;-77
2022/06/20 13:17:37;;;;;;;;;;;;;;;24.40;56.79;99137.34;8269523;28;19972;-77
2022/06/20 13:21:47;;;;;;;;;;;;;;;24.35;55.92;99134.13;8280789;28;20310;-76
2022/06/20 13:25:56;;;;;;;;;;;;;;;24.31;56.30;99130.00;8273301;28;19940;-77
2022/06/20 13:30:17;;;;;;;;;;;;;;;24.21;56.31;99133.28;8277649;28;20472;-76
2022/06/20 13:34:21;;;;;;;;;;;;;;;24.18;56.04;99122.88;8272554;28;19934;-77
2022/06/20 13:38:25;;;;;;;;;;;;;;;24.18;56.46;99120.22;8249285;28;20033;-76
2022/06/20 13:42:29;;;;;;;;;;;;;;;24.56;56.20;99118.59;8251292;28;19929;-77
2022/06/20 13:46:39;;;;;;;;;;;;;;;24.96;54.29;99118.63;8259021;28;20032;-77
2022/06/20 13:50:44;;;;;;;;;;;;;;;25.07;53.26;99108.13;8280367;28;19934;-77
2022/06/20 13:54:49;;;;;;;;;;;;;;;25.38;52.96;99108.69;8286250;28;19992;-77
2022/06/20 13:58:56;;;;;;;;;;;;;;;25.71;52.91;99124.09;8293099;28;19940;-77
2022/06/20 14:03:16;;;;;;;;;;;;;;;25.75;51.64;99123.78;8264030;28;20054;-77
2022/06/20 14:07:24;;;;;;;;;;;;;;;25.85;51.21;99126.63;8284966;28;19959;-77
2022/06/20 14:11:39;;;;;;;;;;;;;;;25.67;51.18;99127.88;8287511;28;20024;-77
2022/06/20 14:15:41;;;;;;;;;;;;;;;25.42;51.67;99129.63;8280976;28;20550;-77
2022/06/20 14:19:47;;;;;;;;;;;;;;;25.41;52.68;99133.22;8267734;28;19968;-77
2022/06/20 14:23:51;;;;;;;;;;;;;;;25.28;51.39;99135.88;8280682;28;20359;-77
2022/06/20 14:27:55;;;;;;;;;;;;;;;24.85;52.02;99151.22;8281698;28;20288;-77
2022/06/20 14:32:17;;;;;;;;;;;;;;;24.72;52.65;99158.28;8291917;28;19968;-77
2022/06/20 14:36:18;;;;;;;;;;;;;;;24.96;52.87;99159.31;8294888;28;20433;-77
2022/06/20 14:40:25;;;;;;;;;;;;;;;25.05;51.31;99165.84;8265472;28;19929;-77
2022/06/20 14:44:26;;;;;;;;;;;;;;;24.77;51.46;99164.13;8298156;28;19940;-77
2022/06/20 14:48:31;;;;;;;;;;;;;;;24.55;52.58;99156.72;8299894;28;20238;-77
2022/06/20 14:52:53;;;;;;;;;;;;;;;24.49;53.25;99156.28;8288095;28;20393;-78
2022/06/20 14:57:17;;;;;;;;;;;;;;;24.69;52.49;99145.22;8289800;28;20393;-78
2022/06/20 15:01:19;;;;;;;;;;;;;;;24.97;52.96;99142.41;8257965;28;19972;-78
2022/06/20 15:05:24;;;;;;;;;;;;;;;25.21;51.02;99150.56;8285186;28;19934;-75
2022/06/20 15:09:31;;;;;;;;;;;;;;;25.28;50.49;99158.94;8301886;28;20266;-77
2022/06/20 15:13:33;;;;;;;;;;;;;;;25.17;49.66;99145.56;8293481;28;20024;-75
2022/06/20 15:17:41;;;;;;;;;;;;;;;25.26;50.16;99137.78;8286943;28;19996;-77
2022/06/20 15:21:52;;;;;;;;;;;;;;;25.40;49.82;99138.66;8300076;28;19930;-77
2022/06/20 15:25:57;;;;;;;;;;;;;;;25.55;49.73;99137.59;8303327;28;19945;-76
2022/06/20 15:30:18;;;;;;;;;;;;;;;25.69;48.06;99131.34;8286957;28;19972;-77
2022/06/20 15:34:30;;;;;;;;;;;;;;;25.87;48.57;99130.91;8260349;28;19980;-79
2022/06/20 15:38:52;;;;;;;;;;;;;;;25.95;47.22;99137.47;8276452;28;19930;-77
2022/06/20 15:43:04;;;;;;;;;;;;;;;25.97;47.27;99149.69;8280545;28;19952;-77
2022/06/20 15:47:12;;;;;;;;;;;;;;;25.56;47.17;99148.13;8266669;28;20618;-77
2022/06/20 15:51:31;;;;;;;;;;;;;;;25.20;48.71;99140.03;8286672;28;19929;-77
2022/06/20 15:55:45;;;;;;;;;;;;;;;24.89;49.52;99146.53;8288639;28;19930;-77
2022/06/20 15:59:52;;;;;;;;;;;;;;;24.54;49.43;99136.44;8302686;28;19975;-78
2022/06/20 16:04:02;;;;;;;;;;;;;;;24.18;50.54;99142.31;8281552;28;19930;-78
2022/06/20 16:08:20;;;;;;;;;;;;;;;24.04;51.08;99139.69;8282994;28;19936;-77
2022/06/20 16:12:23;;;;;;;;;;;;;;;24.04;51.17;99139.69;8288361;28;19948;-77
2022/06/20 16:16:27;;;;;;;;;;;;;;;23.95;51.31;99141.13;8272082;28;20337;-77
2022/06/20 16:20:31;;;;;;;;;;;;;;;23.77;50.72;99139.63;8274313;28;19937;-77
2022/06/20 16:24:38;;;;;;;;;;;;;;;23.58;51.66;99136.41;8290766;28;19977;-77
2022/06/20 16:28:50;;;;;;;;;;;;;;;23.39;52.52;99140.16;8285305;28;19967;-77
2022/06/20 16:33:10;;;;;;;;;;;;;;;23.32;52.86;99137.97;8288513;28;20032;-77
2022/06/20 16:37:14;;;;;;;;;;;;;;;23.24;53.02;99135.78;8290890;28;19940;-77
2022/06/20 16:41:21;;;;;;;;;;;;;;;23.32;52.67;99138.81;8284934;28;19940;-78
2022/06/20 16:45:37;;;;;;;;;;;;;;;23.31;52.19;99145.06;8280675;28;20183;-77
2022/06/20 16:49:48;;;;;;;;;;;;;;;23.05;51.98;99145.78;8284384;28;20671;-77
2022/06/20 16:53:54;;;;;;;;;;;;;;;23.01;52.47;99146.91;8290202;28;20729;-77
2022/06/20 16:58:02;;;;;;;;;;;;;;;22.93;52.34;99155.28;8290127;28;19939;-77
2022/06/20 17:02:23;;;;;;;;;;;;;;;22.80;51.42;99159.56;8279165;28;19972;-77
2022/06/20 17:06:45;;;;;;;;;;;;;;;22.78;52.33;99150.84;8264132;28;19933;-77
2022/06/20 17:10:51;;;;;;;;;;;;;;;22.59;51.89;99145.78;8291086;28;20127;-77
2022/06/20 17:14:56;;;;;;;;;;;;;;;22.48;52.10;99157.00;8284496;28;20028;-78
2022/06/20 17:19:02;;;;;;;;;;;;;;;22.35;52.65;99155.97;8291963;28;20360;-77
2022/06/20 17:23:03;;;;;;;;;;;;;;;22.28;53.07;99162.56;8278327;28;19965;-77
2022/06/20 17:27:13;;;;;;;;;;;;;;;22.27;53.69;99156.41;8276384;28;19940;-77
2022/06/20 17:31:21;;;;;;;;;;;;;;;22.35;53.83;99153.31;8276185;28;19929;-77
2022/06/20 17:35:43;;;;;;;;;;;;;;;22.31;53.40;99160.59;8292679;28;20346;-77
2022/06/20 17:39:57;;;;;;;;;;;;;;;22.23;52.95;99165.44;8294427;28;21437;-77
2022/06/20 17:43:58;;;;;;;;;;;;;;;22.12;53.44;99162.53;8284367;28;19969;-77
2022/06/20 17:48:15;;;;;;;;;;;;;;;22.00;53.69;99164.03;8284580;28;19929;-77
2022/06/20 17:52:35;;;;;;;;;;;;;;;21.85;53.60;99169.28;8282107;28;20306;-77
2022/06/20 17:56:49;;;;;;;;;;;;;;;21.65;54.21;99157.16;8291270;28;19939;-77
2022/06/20 18:00:53;;;;;;;;;;;;;;;21.50;54.02;99163.25;8285201;28;19929;-77
2022/06/20 18:04:58;;;;;;;;;;;;;;;21.33;54.35;99166.75;8283499;28;19929;-77
2022/06/20 18:09:18;;;;;;;;;;;;;;;21.17;54.54;99174.59;8291364;28;19969;-77
2022/06/20 18:13:25;;;;;;;;;;;;;;;21.03;53.45;99177.94;8281957;28;20031;-77
2022/06/20 18:17:35;;;;;;;;;;;;;;;20.84;53.34;99184.22;8267658;28;19972;-77
2022/06/20 18:21:37;;;;;;;;;;;;;;;20.68;52.69;99189.41;8297256;28;19941;-77
2022/06/20 18:25:42;;;;;;;;;;;;;;;20.54;52.53;99194.47;8250491;28;20542;-77
2022/06/20 18:29:44;;;;;;;;;;;;;;;20.35;52.43;99205.88;8278229;28;19930;-77
2022/06/20 18:33:47;;;;;;;;;;;;;;;20.24;52.17;99202.88;8277099;28;20024;-77
2022/06/20 18:38:15;;;;;;;;;;;;;;;20.12;52.37;99200.84;8250811;28;19940;-77
2022/06/20 18:42:16;;;;;;;;;;;;;;;20.04;52.60;99213.50;8241851;28;19937;-77
2022/06/20 18:46:27;;;;;;;;;;;;;;;19.88;52.16;99210.69;8247785;28;19957;-77
2022/06/20 18:50:47;;;;;;;;;;;;;;;19.78;52.26;99218.19;8237336;28;20000;-77
2022/06/20 18:54:48;;;;;;;;;;;;;;;19.66;50.42;99231.03;8262732;28;19933;-77
2022/06/20 18:58:59;;;;;;;;;;;;;;;19.51;49.65;99229.88;8231162;28;20414;-77
2022/06/20 19:03:00;;;;;;;;;;;;;;;19.44;50.83;99225.81;8260382;28;19937;-76
2022/06/20 19:07:05;;;;;;;;;;;;;;;19.34;48.75;99230.59;8247699;28;20387;-77
2022/06/20 19:11:06;;;;;;;;;;;;;;;19.23;48.62;99227.59;8249697;28;19936;-76
2022/06/20 19:15:26;;;;;;;;;;;;;;;19.12;48.54;99232.44;8257765;28;19957;-77
2022/06/20 19:19:45;;;;;;;;;;;;;;;19.07;48.97;99237.03;8245815;28;19930;-78
2022/06/20 19:23:52;;;;;;;;;;;;;;;19.02;48.52;99231.94;8255661;28;20040;-77
2022/06/20 19:27:57;;;;;;;;;;;;;;;18.87;47.65;99238.72;8260778;28;19929;-77
2022/06/20 19:31:59;;;;;;;;;;;;;;;18.76;46.67;99235.66;8237455;28;19930;-77
2022/06/20 19:36:13;;;;;;;;;;;;;;;18.68;47.70;99243.88;8259790;28;19929;-77
2022/06/20 19:40:31;;;;;;;;;;;;;;;18.49;48.04;99244.59;8255849;28;19930;-77
2022/06/20 19:44:34;;;;;;;;;;;;;;;18.44;49.28;99250.03;8247484;28;19930;-77
2022/06/20 19:48:41;;;;;;;;;;;;;;;18.30;49.59;99249.69;8229975;28;19936;-75
2022/06/20 19:52:44;;;;;;;;;;;;;;;18.20;49.21;99257.09;8243202;28;19979;-76
2022/06/20 19:57:14;;;;;;;;;;;;;;;18.17;49.09;99259.84;8253556;28;20018;-76
2022/06/20 20:01:29;;;;;;;;;;;;;;;18.11;48.92;99268.78;8262477;28;20032;-76
2022/06/20 20:05:31;;;;;;;;;;;;;;;18.07;48.94;99264.56;8249713;28;19944;-76
2022/06/20 20:09:33;;;;;;;;;;;;;;;18.04;49.32;99269.09;8247791;28;19934;-76
2022/06/20 20:13:34;;;;;;;;;;;;;;;18.01;49.73;99264.81;8249353;28;19940;-76
2022/06/20 20:17:55;;;;;;;;;;;;;;;17.93;49.99;99268.59;8233758;28;19969;-76
2022/06/20 20:21:58;;;;;;;;;;;;;;;17.87;50.77;99274.09;8232098;28;19930;-76
2022/06/20 20:26:08;;;;;;;;;;;;;;;17.71;51.37;99279.88;8265869;28;20027;-76
2022/06/20 20:30:13;;;;;;;;;;;;;;;17.57;52.13;99271.59;8249353;28;20234;-76
2022/06/20 20:34:18;;;;;;;;;;;;;;;17.52;52.36;99276.16;8238999;28;20031;-76
2022/06/20 20:38:19;;;;;;;;;;;;;;;17.44;52.44;99286.06;8279480;28;20188;-76
2022/06/20 20:42:39;;;;;;;;;;;;;;;17.31;53.01;99282.13;8281999;28;19930;-76
2022/06/20 20:46:59;;;;;;;;;;;;;;;17.17;54.95;99295.72;8285956;28;19929;-76
2022/06/20 20:51:07;;;;;;;;;;;;;;;16.91;56.33;99292.16;8285156;28;19929;-75
2022/06/20 20:55:10;;;;;;;;;;;;;;;16.71;57.74;99291.09;8287575;28;20475;-76
2022/06/20 20:59:16;;;;;;;;;;;;;;;16.50;56.76;99289.91;8268099;28;20246;-76
2022/06/20 21:03:19;;;;;;;;;;;;;;;16.25;58.22;99289.78;8278326;28;19929;-76
2022/06/20 21:07:23;;;;;;;;;;;;;;;16.05;59.51;99279.88;8280542;28;20474;-75
2022/06/20 21:11:28;;;;;;;;;;;;;;;15.97;60.08;99271.38;8277881;28;19933;-76
2022/06/20 21:15:37;;;;;;;;;;;;;;;15.86;59.61;99281.31;8283949;28;19929;-76
2022/06/20 21:19:38;;;;;;;;;;;;;;;15.68;61.41;99278.28;8289549;28;19929;-76
2022/06/20 21:23:44;;;;;;;;;;;;;;;15.47;62.88;99272.72;8264831;28;19973;-76
2022/06/20 21:27:46;;;;;;;;;;;;;;;15.38;63.14;99271.19;8263663;28;19929;-76
2022/06/20 21:31:50;;;;;;;;;;;;;;;15.30;64.16;99278.41;8281131;28;19976;-76
2022/06/20 21:35:52;;;;;;;;;;;;;;;15.16;64.96;99265.66;8284131;28;19934;-77
2022/06/20 21:39:55;;;;;;;;;;;;;;;15.04;65.24;99260.72;8283132;28;20478;-76
2022/06/20 21:44:03;;;;;;;;;;;;;;;14.98;65.89;99247.81;8286597;28;20394;-76
2022/06/20 21:48:10;;;;;;;;;;;;;;;14.87;66.74;99242.81;8292343;28;19969;-76